createdAt,value
2019-01-12T00:01:20.822Z,9.83
2019-01-12T00:03:51.213Z,9.73
2019-01-12T00:06:21.367Z,9.30
2019-01-12T00:08:51.573Z,9.67
2019-01-12T00:11:21.731Z,10.53
2019-01-12T00:13:53.026Z,10.83
2019-01-12T00:16:23.193Z,9.90
2019-01-12T00:18:53.383Z,9.97
2019-01-12T00:21:23.518Z,11.30
2019-01-12T00:23:53.687Z,9.80
2019-01-12T00:26:24.927Z,11.07
2019-01-12T00:28:55.092Z,11.23
2019-01-12T00:31:25.286Z,11.10
2019-01-12T00:33:55.486Z,12.30
2019-01-12T00:36:25.639Z,11.23
2019-01-12T00:38:55.821Z,11.20
2019-01-12T00:41:25.991Z,12.50
2019-01-12T00:43:56.191Z,11.70
2019-01-12T00:46:26.339Z,11.03
2019-01-12T00:48:56.500Z,10.80
2019-01-12T00:51:26.685Z,13.17
2019-01-12T00:53:56.815Z,10.67
2019-01-12T00:56:27.000Z,11.93
2019-01-12T00:58:57.147Z,11.30
2019-01-12T01:01:27.301Z,11.27
2019-01-12T01:03:57.438Z,12.47
2019-01-12T01:06:27.627Z,12.60
2019-01-12T01:08:57.783Z,16.00
2019-01-12T01:11:27.952Z,16.70
2019-01-12T01:13:58.110Z,15.33
2019-01-12T01:16:28.304Z,17.60
2019-01-12T01:18:58.454Z,16.40
2019-01-12T01:21:28.683Z,15.93
2019-01-12T01:23:58.822Z,16.93
2019-01-12T01:26:29.024Z,18.27
2019-01-12T01:28:59.155Z,18.30
2019-01-12T01:31:29.358Z,16.77
2019-01-12T01:33:59.514Z,15.13
2019-01-12T01:36:29.671Z,14.83
2019-01-12T01:38:59.871Z,15.10
2019-01-12T01:41:30.004Z,16.00
2019-01-12T01:44:00.186Z,15.27
2019-01-12T01:46:30.356Z,14.33
2019-01-12T01:49:00.499Z,12.67
2019-01-12T01:51:30.669Z,14.30
2019-01-12T01:54:00.815Z,13.77
2019-01-12T01:56:30.898Z,14.03
2019-01-12T01:59:01.058Z,14.20
2019-01-12T02:01:31.235Z,13.10
2019-01-12T02:04:01.490Z,14.20
2019-01-12T02:06:31.652Z,13.77
2019-01-12T02:09:01.830Z,15.27
2019-01-12T02:11:33.184Z,17.93
2019-01-12T02:14:03.351Z,17.10
2019-01-12T02:16:33.532Z,17.90
2019-01-12T02:19:04.841Z,19.37
2019-01-12T02:21:35.159Z,18.37
2019-01-12T02:24:05.676Z,20.33
2019-01-12T02:26:35.848Z,20.60
2019-01-12T02:29:07.515Z,20.53
2019-01-12T02:31:37.678Z,20.97
2019-01-12T02:34:07.840Z,21.40
2019-01-12T02:36:38.023Z,21.87
2019-01-12T02:39:08.425Z,23.47
2019-01-12T02:41:38.588Z,21.77
2019-01-12T02:44:08.785Z,21.63
2019-01-12T02:46:38.955Z,20.53
2019-01-12T02:49:09.202Z,21.00
2019-01-12T02:51:39.464Z,21.03
2019-01-12T02:54:09.693Z,20.47
2019-01-12T02:56:40.091Z,22.60
2019-01-12T02:59:10.362Z,22.33
2019-01-12T03:01:40.556Z,23.73
2019-01-12T03:04:10.775Z,24.20
2019-01-12T03:06:40.947Z,24.87
2019-01-12T03:09:11.123Z,24.47
2019-01-12T03:11:41.263Z,24.37
2019-01-12T03:14:11.472Z,23.80
2019-01-12T03:16:41.607Z,25.17
2019-01-12T03:19:11.783Z,23.93
2019-01-12T03:21:42.003Z,25.40
2019-01-12T03:24:13.672Z,25.73
2019-01-12T03:26:43.859Z,26.13
2019-01-12T03:29:14.071Z,25.43
2019-01-12T03:31:44.241Z,26.97
2019-01-12T03:34:15.012Z,25.97
2019-01-12T03:36:45.172Z,26.50
2019-01-12T03:39:15.422Z,24.83
2019-01-12T03:41:45.576Z,26.57
2019-01-12T03:44:15.772Z,24.53
2019-01-12T03:46:47.067Z,26.03
2019-01-12T03:49:17.215Z,24.63
2019-01-12T03:51:48.864Z,22.37
2019-01-12T03:54:19.056Z,22.50
2019-01-12T03:56:49.191Z,22.57
2019-01-12T03:59:19.415Z,24.20
2019-01-12T04:01:49.581Z,23.70
2019-01-12T04:04:19.726Z,24.83
2019-01-12T04:06:49.932Z,24.00
2019-01-12T04:09:20.068Z,25.37
2019-01-12T04:11:50.232Z,25.50
2019-01-12T04:14:20.383Z,26.13
2019-01-12T04:16:50.644Z,24.83
2019-01-12T04:19:20.819Z,25.93
2019-01-12T04:21:50.982Z,21.83
2019-01-12T04:24:21.118Z,22.47
2019-01-12T04:26:51.291Z,21.17
2019-01-12T04:29:21.471Z,20.70
2019-01-12T04:31:51.631Z,19.00
2019-01-12T04:34:21.780Z,18.80
2019-01-12T04:36:51.947Z,18.60
2019-01-12T04:39:22.195Z,17.80
2019-01-12T04:41:52.471Z,16.20
2019-01-12T04:44:22.689Z,16.80
2019-01-12T04:46:52.901Z,16.00
2019-01-12T04:49:23.070Z,17.20
2019-01-12T04:51:53.227Z,15.20
2019-01-12T04:54:23.418Z,15.83
2019-01-12T04:56:53.589Z,15.87
2019-01-12T04:59:23.737Z,16.53
2019-01-12T05:01:53.900Z,17.00
2019-01-12T05:04:24.083Z,16.30
2019-01-12T05:06:54.283Z,17.20
2019-01-12T05:09:24.459Z,16.40
2019-01-12T05:11:54.718Z,16.47
2019-01-12T05:14:24.974Z,15.70
2019-01-12T05:16:55.145Z,16.77
2019-01-12T05:19:25.304Z,14.50
2019-01-12T05:21:55.486Z,15.20
2019-01-12T05:24:25.623Z,15.60
2019-01-12T05:26:55.807Z,15.13
2019-01-12T05:29:25.948Z,15.77
2019-01-12T05:31:56.130Z,14.23
2019-01-12T05:34:26.320Z,14.37
2019-01-12T05:36:56.452Z,14.20
2019-01-12T05:39:26.623Z,12.10
2019-01-12T05:41:56.835Z,12.07
2019-01-12T05:44:27.063Z,12.50
2019-01-12T05:46:57.303Z,12.23
2019-01-12T05:49:27.516Z,12.20
2019-01-12T05:51:57.681Z,11.60
2019-01-12T05:54:27.863Z,11.57
2019-01-12T05:56:58.015Z,11.20
2019-01-12T05:59:28.207Z,11.80
2019-01-12T06:01:58.391Z,11.80
2019-01-12T06:04:28.535Z,11.20
2019-01-12T06:06:58.699Z,11.77
2019-01-12T06:09:28.879Z,13.60
2019-01-12T06:11:59.027Z,12.50
2019-01-12T06:14:29.183Z,13.93
2019-01-12T06:16:59.345Z,13.60
2019-01-12T06:19:29.510Z,13.20
2019-01-12T06:21:59.671Z,14.27
2019-01-12T06:24:29.819Z,15.27
2019-01-12T06:26:59.982Z,14.03
2019-01-12T06:29:30.247Z,15.07
2019-01-12T06:32:00.412Z,15.33
2019-01-12T06:34:30.550Z,17.47
2019-01-12T06:37:00.724Z,17.23
2019-01-12T06:39:30.883Z,18.40
2019-01-12T06:42:01.654Z,16.37
2019-01-12T06:44:31.915Z,18.00
2019-01-12T06:47:02.090Z,17.80
2019-01-12T06:49:32.251Z,19.20
2019-01-12T06:52:02.507Z,17.93
2019-01-12T06:54:32.703Z,17.30
2019-01-12T06:57:02.863Z,17.87
2019-01-12T06:59:34.308Z,18.33
2019-01-12T07:02:04.552Z,17.93
2019-01-12T07:04:34.723Z,17.30
2019-01-12T07:07:04.880Z,19.20
2019-01-12T07:09:35.084Z,18.60
2019-01-12T07:12:05.244Z,19.33
2019-01-12T07:14:35.404Z,17.83
2019-01-12T07:17:05.569Z,19.23
2019-01-12T07:19:35.755Z,20.37
2019-01-12T07:22:05.907Z,19.40
2019-01-12T07:24:36.110Z,17.67
2019-01-12T07:27:06.294Z,19.03
2019-01-12T07:29:36.506Z,18.87
2019-01-12T07:32:06.679Z,17.87
2019-01-12T07:34:36.859Z,19.70
2019-01-12T07:37:07.081Z,18.43
2019-01-12T07:39:37.344Z,21.87
2019-01-12T07:42:07.631Z,21.80
2019-01-12T07:44:37.832Z,22.23
2019-01-12T07:47:08.001Z,20.47
2019-01-12T07:49:38.159Z,22.40
2019-01-12T07:52:09.374Z,21.80
2019-01-12T07:54:39.571Z,22.37
2019-01-12T07:57:09.760Z,22.40
2019-01-12T07:59:40.040Z,20.60
2019-01-12T08:02:10.217Z,20.17
2019-01-12T08:04:40.371Z,23.23
2019-01-12T08:07:10.531Z,22.47
2019-01-12T08:09:40.696Z,21.10
2019-01-12T08:12:10.864Z,19.30
2019-01-12T08:14:41.037Z,22.67
2019-01-12T08:17:11.212Z,22.87
2019-01-12T08:19:41.423Z,24.30
2019-01-12T08:22:11.583Z,24.57
2019-01-12T08:24:41.779Z,24.83
2019-01-12T08:27:11.948Z,22.50
2019-01-12T08:29:42.137Z,23.70
2019-01-12T08:32:12.307Z,22.60
2019-01-12T08:34:42.500Z,22.90
2019-01-12T08:37:12.698Z,22.50
2019-01-12T08:39:42.887Z,22.13
2019-01-12T08:42:13.060Z,23.77
2019-01-12T08:44:43.230Z,23.40
2019-01-12T08:47:13.402Z,24.77
2019-01-12T08:49:43.628Z,23.83
2019-01-12T08:52:13.952Z,21.40
2019-01-12T08:54:44.117Z,23.40
2019-01-12T08:57:14.297Z,22.23
2019-01-12T08:59:44.578Z,23.63
2019-01-12T09:02:14.793Z,24.90
2019-01-12T09:04:44.983Z,23.10
2019-01-12T09:07:15.159Z,23.40
2019-01-12T09:09:45.332Z,25.60
2019-01-12T09:12:15.498Z,21.40
2019-01-12T09:14:45.671Z,24.40
2019-01-12T09:17:15.838Z,22.53
2019-01-12T09:19:46.035Z,21.43
2019-01-12T09:22:16.179Z,21.83
2019-01-12T09:24:46.350Z,25.20
2019-01-12T09:27:16.507Z,25.13
2019-01-12T09:29:46.787Z,20.63
2019-01-12T09:32:17.047Z,21.27
2019-01-12T09:34:47.192Z,24.50
2019-01-12T09:37:17.336Z,21.20
2019-01-12T09:39:47.534Z,24.93
2019-01-12T09:42:17.718Z,24.00
2019-01-12T09:44:47.896Z,21.60
2019-01-12T09:47:18.082Z,24.67
2019-01-12T09:49:48.527Z,26.97
2019-01-12T09:52:18.694Z,25.20
2019-01-12T09:54:48.859Z,25.33
2019-01-12T09:57:19.067Z,23.60
2019-01-12T09:59:49.220Z,25.40
2019-01-12T10:02:19.395Z,21.80
2019-01-12T10:04:49.561Z,24.60
2019-01-12T10:07:19.739Z,23.90
2019-01-12T10:09:49.958Z,21.30
2019-01-12T10:12:20.156Z,24.20
2019-01-12T10:14:50.355Z,20.70
2019-01-12T10:17:20.692Z,21.07
2019-01-12T10:19:52.111Z,23.20
2019-01-12T10:22:28.421Z,23.73
2019-01-12T10:24:54.301Z,23.10
2019-01-12T10:27:24.515Z,22.70
2019-01-12T10:29:54.667Z,20.80
2019-01-12T10:32:24.901Z,22.10
2019-01-12T10:34:55.097Z,21.63
2019-01-12T10:37:25.347Z,20.27
2019-01-12T10:39:55.887Z,22.10
2019-01-12T10:42:26.071Z,21.23
2019-01-12T10:44:56.289Z,19.40
2019-01-12T10:47:26.922Z,19.53
2019-01-12T10:49:57.225Z,19.83
2019-01-12T10:52:27.421Z,20.50
2019-01-12T10:54:57.661Z,16.80
2019-01-12T10:57:27.823Z,20.07
2019-01-12T10:59:58.019Z,19.57
2019-01-12T11:02:28.158Z,17.60
2019-01-12T11:04:58.371Z,19.30
2019-01-12T11:07:28.596Z,23.90
2019-01-12T11:10:04.125Z,24.03
2019-01-12T11:12:31.475Z,22.80
2019-01-12T11:15:01.651Z,24.70
2019-01-12T11:17:31.835Z,26.30
2019-01-12T11:20:02.192Z,24.70
2019-01-12T11:22:32.424Z,26.23
2019-01-12T11:25:05.228Z,26.53
2019-01-12T11:27:35.901Z,24.00
2019-01-12T11:30:08.690Z,26.30
2019-01-12T11:32:38.888Z,25.60
2019-01-12T11:35:09.957Z,26.43
2019-01-12T11:37:40.316Z,25.60
2019-01-12T11:40:13.779Z,22.17
2019-01-12T11:42:43.976Z,20.63
2019-01-12T11:45:14.450Z,23.80
2019-01-12T11:47:44.648Z,23.83
2019-01-12T11:50:15.652Z,23.17
2019-01-12T11:52:46.493Z,21.40
2019-01-12T11:55:22.124Z,21.73
2019-01-12T11:57:52.316Z,22.07
2019-01-12T12:00:27.888Z,19.90
2019-01-12T12:03:00.911Z,24.10
2019-01-12T12:05:31.409Z,23.60
2019-01-12T12:08:13.010Z,19.83
2019-01-12T12:10:43.332Z,21.37
2019-01-12T12:13:13.527Z,21.30
2019-01-12T12:15:43.695Z,20.07
2019-01-12T12:18:13.880Z,19.70
2019-01-12T12:20:44.060Z,20.43
2019-01-12T12:23:14.264Z,22.83
2019-01-12T12:25:44.430Z,23.50
2019-01-12T12:28:14.626Z,20.37
2019-01-12T12:30:44.852Z,17.43
2019-01-12T12:33:15.105Z,23.40
2019-01-12T12:35:45.258Z,23.37
2019-01-12T12:38:15.472Z,19.30
2019-01-12T12:40:45.659Z,21.10
2019-01-12T12:43:15.887Z,20.33
2019-01-12T12:45:46.098Z,19.20
2019-01-12T12:48:16.294Z,19.73
2019-01-12T12:50:46.459Z,19.40
2019-01-12T12:53:17.823Z,19.10
2019-01-12T12:55:48.002Z,19.27
2019-01-12T12:58:18.176Z,20.23
2019-01-12T13:00:48.508Z,20.70
2019-01-12T13:03:18.676Z,19.90
2019-01-12T13:05:51.625Z,19.33
2019-01-12T13:08:22.030Z,19.30
2019-01-12T13:10:52.537Z,16.60
2019-01-12T13:13:22.700Z,21.53
2019-01-12T13:15:52.913Z,20.00
2019-01-12T13:18:23.238Z,19.17
2019-01-12T13:20:53.424Z,20.60
2019-01-12T13:23:23.594Z,19.87
2019-01-12T13:25:53.769Z,20.53
2019-01-12T13:28:23.939Z,16.57
2019-01-12T13:30:54.097Z,20.90
2019-01-12T13:33:24.278Z,21.23
2019-01-12T13:35:54.544Z,22.00
2019-01-12T13:38:24.729Z,20.73
2019-01-12T13:40:54.895Z,22.37
2019-01-12T13:43:25.074Z,23.33
2019-01-12T13:45:55.234Z,23.87
2019-01-12T13:48:25.406Z,24.37
2019-01-12T13:50:56.693Z,23.37
2019-01-12T13:53:26.884Z,24.37
2019-01-12T13:55:57.059Z,25.30
2019-01-12T13:58:27.227Z,22.70
2019-01-12T14:00:57.453Z,20.93
2019-01-12T14:03:27.692Z,21.37
2019-01-12T14:05:57.887Z,20.20
2019-01-12T14:08:28.082Z,20.50
2019-01-12T14:10:58.310Z,20.60
2019-01-12T14:13:28.484Z,15.77
2019-01-12T14:15:58.664Z,17.70
2019-01-12T14:18:28.828Z,14.70
2019-01-12T14:20:59.119Z,13.93
2019-01-12T14:23:30.417Z,15.10
2019-01-12T14:26:02.051Z,15.63
2019-01-12T14:28:32.314Z,13.37
2019-01-12T14:31:02.556Z,12.70
2019-01-12T14:33:32.763Z,12.53
2019-01-12T14:36:02.956Z,12.83
2019-01-12T14:38:33.940Z,11.10
2019-01-12T14:41:04.196Z,12.90
2019-01-12T14:43:34.356Z,11.07
2019-01-12T14:46:05.634Z,11.67
2019-01-12T14:48:35.928Z,11.60
2019-01-12T14:51:07.292Z,11.80
2019-01-12T14:53:39.171Z,12.60
2019-01-12T14:56:09.518Z,13.20
2019-01-12T14:58:39.749Z,14.17
2019-01-12T15:01:10.041Z,13.07
2019-01-12T15:03:40.201Z,12.70
2019-01-12T15:06:10.456Z,13.70
2019-01-12T15:08:40.663Z,13.43
2019-01-12T15:11:10.878Z,14.17
2019-01-12T15:13:41.047Z,14.50
2019-01-12T15:16:11.251Z,13.10
2019-01-12T15:18:41.498Z,11.47
2019-01-12T15:21:11.776Z,15.60
2019-01-12T15:23:41.967Z,15.17
2019-01-12T15:26:12.169Z,16.13
2019-01-12T15:28:42.603Z,17.50
2019-01-12T15:31:12.905Z,16.60
2019-01-12T15:33:44.937Z,18.13
2019-01-12T15:36:15.138Z,18.50
2019-01-12T15:38:45.307Z,18.17
2019-01-12T15:41:15.568Z,19.27
2019-01-12T15:43:45.840Z,20.43
2019-01-12T15:46:16.161Z,20.00
2019-01-12T15:48:46.354Z,21.43
2019-01-12T15:51:16.561Z,22.10
2019-01-12T15:53:46.776Z,22.10
2019-01-12T15:56:18.027Z,21.67
2019-01-12T15:58:48.235Z,21.77
2019-01-12T16:01:18.438Z,22.40
2019-01-12T16:03:48.607Z,22.23
2019-01-12T16:06:18.816Z,24.30
2019-01-12T16:08:49.026Z,22.37
2019-01-12T16:11:19.208Z,23.10
2019-01-12T16:13:49.440Z,22.27
2019-01-12T16:16:19.659Z,21.67
2019-01-12T16:18:49.850Z,20.33
2019-01-12T16:21:20.080Z,20.20
2019-01-12T16:23:50.259Z,18.13
2019-01-12T16:26:20.445Z,18.77
2019-01-12T16:28:50.650Z,18.20
2019-01-12T16:31:21.289Z,17.10
2019-01-12T16:33:51.484Z,15.80
2019-01-12T16:36:21.686Z,15.93
2019-01-12T16:38:51.854Z,16.97
2019-01-12T16:41:22.256Z,17.20
2019-01-12T16:43:52.403Z,19.07
2019-01-12T16:46:22.614Z,19.23
2019-01-12T16:48:52.773Z,21.77
2019-01-12T16:51:22.986Z,19.30
2019-01-12T16:53:53.223Z,19.27
2019-01-12T16:56:25.237Z,19.33
2019-01-12T16:58:55.496Z,19.70
2019-01-12T17:01:25.719Z,18.47
2019-01-12T17:03:55.900Z,17.47
2019-01-12T17:06:26.091Z,17.77
2019-01-12T17:08:56.263Z,16.53
2019-01-12T17:11:26.531Z,16.53
2019-01-12T17:13:56.785Z,15.30
2019-01-12T17:16:27.096Z,14.60
2019-01-12T17:18:57.255Z,16.07
2019-01-12T17:21:27.408Z,16.70
2019-01-12T17:23:57.614Z,17.87
2019-01-12T17:26:27.831Z,18.20
2019-01-12T17:28:58.083Z,16.20
2019-01-12T17:31:28.286Z,18.33
2019-01-12T17:33:58.453Z,18.50
2019-01-12T17:36:28.656Z,16.93
2019-01-12T17:38:58.850Z,13.30
2019-01-12T17:41:29.064Z,12.07
2019-01-12T17:43:59.254Z,12.50
2019-01-12T17:46:29.450Z,11.70
2019-01-12T17:48:59.614Z,11.80
2019-01-12T17:51:29.823Z,13.53
2019-01-12T17:54:00.045Z,13.33
2019-01-12T17:56:30.217Z,13.20
2019-01-12T17:59:00.513Z,13.00
2019-01-12T18:01:31.676Z,12.30
2019-01-12T18:04:01.918Z,12.97
2019-01-12T18:06:32.081Z,12.30
2019-01-12T18:09:02.279Z,12.00
2019-01-12T18:11:33.584Z,12.33
2019-01-12T18:14:04.384Z,10.57
2019-01-12T18:16:34.579Z,11.73
2019-01-12T18:19:04.897Z,8.50
2019-01-12T18:21:35.111Z,8.20
2019-01-12T18:24:05.558Z,7.67
2019-01-12T18:26:36.836Z,7.00
2019-01-12T18:29:07.100Z,6.97
2019-01-12T18:31:37.295Z,8.43
2019-01-12T18:34:07.476Z,8.10
2019-01-12T18:36:37.885Z,8.80
2019-01-12T18:39:08.647Z,7.97
2019-01-12T18:41:38.874Z,9.50
2019-01-12T18:44:09.068Z,10.03
2019-01-12T18:46:39.417Z,9.47
2019-01-12T18:49:09.716Z,11.10
2019-01-12T18:51:40.011Z,10.77
2019-01-12T18:54:10.223Z,10.70
2019-01-12T18:56:40.443Z,12.07
2019-01-12T18:59:10.755Z,11.90
2019-01-12T19:01:40.918Z,12.00
2019-01-12T19:04:11.264Z,11.63
2019-01-12T19:06:41.555Z,12.87
2019-01-12T19:09:11.871Z,13.60
2019-01-12T19:11:42.067Z,12.77
2019-01-12T19:14:12.273Z,13.13
2019-01-12T19:16:42.448Z,12.23
2019-01-12T19:19:12.640Z,11.13
2019-01-12T19:21:42.830Z,12.03
2019-01-12T19:24:13.003Z,12.73
2019-01-12T19:26:43.178Z,13.40
2019-01-12T19:29:13.387Z,13.73
2019-01-12T19:31:43.648Z,12.87
2019-01-12T19:34:13.844Z,11.43
2019-01-12T19:36:45.258Z,10.90
2019-01-12T19:39:15.542Z,10.77
2019-01-12T19:41:45.741Z,11.43
2019-01-12T19:44:15.993Z,12.97
2019-01-12T19:46:46.167Z,13.27
2019-01-12T19:49:16.399Z,11.93
2019-01-12T19:51:46.580Z,12.73
2019-01-12T19:54:16.780Z,14.10
2019-01-12T19:56:47.031Z,11.97
2019-01-12T19:59:17.335Z,12.73
2019-01-12T20:01:47.527Z,12.73
2019-01-12T20:04:19.523Z,14.20
2019-01-12T20:06:49.751Z,11.77
2019-01-12T20:09:19.964Z,12.60
2019-01-12T20:11:50.147Z,12.77
2019-01-12T20:14:20.602Z,13.10
2019-01-12T20:16:50.848Z,12.03
2019-01-12T20:19:21.088Z,12.10
2019-01-12T20:21:51.355Z,11.80
2019-01-12T20:24:21.548Z,12.47
2019-01-12T20:26:51.748Z,13.00
2019-01-12T20:29:21.951Z,14.10
2019-01-12T20:32:12.562Z,13.40
2019-01-12T20:35:03.642Z,13.53
2019-01-12T20:38:04.784Z,13.83
2019-01-12T20:41:10.210Z,12.70
2019-01-12T20:43:58.823Z,12.17
2019-01-12T20:46:57.009Z,12.27
2019-01-12T20:50:03.575Z,12.27
2019-01-12T20:53:14.419Z,10.03
2019-01-12T20:56:19.727Z,10.23
2019-01-12T20:59:33.510Z,10.43
2019-01-12T21:02:40.588Z,10.50
2019-01-12T21:05:57.842Z,10.00
2019-01-12T21:08:41.951Z,10.30
2019-01-12T21:11:33.027Z,11.50
2019-01-12T21:14:40.260Z,11.93
2019-01-12T21:17:12.311Z,11.20
2019-01-12T21:19:48.170Z,10.23
2019-01-12T21:22:14.533Z,11.00
2019-01-12T21:24:44.846Z,10.03
2019-01-12T21:27:15.029Z,11.30
2019-01-12T21:29:45.348Z,12.07
2019-01-12T21:32:15.544Z,12.20
2019-01-12T21:34:45.694Z,14.37
2019-01-12T21:37:15.899Z,14.80
2019-01-12T21:39:47.528Z,14.50
2019-01-12T21:42:17.799Z,15.10
2019-01-12T21:44:47.969Z,15.90
2019-01-12T21:47:18.171Z,14.07
2019-01-12T21:49:48.332Z,14.57
2019-01-12T21:52:18.535Z,13.30
2019-01-12T21:54:48.779Z,13.13
2019-01-12T21:57:18.981Z,14.83
2019-01-12T21:59:49.188Z,14.70
2019-01-12T22:02:19.410Z,14.53
2019-01-12T22:04:49.580Z,15.07
2019-01-12T22:07:19.804Z,15.00
2019-01-12T22:09:49.932Z,14.77
2019-01-12T22:12:20.143Z,13.57
2019-01-12T22:14:50.345Z,16.23
2019-01-12T22:17:20.621Z,15.43
2019-01-12T22:19:51.820Z,15.83
2019-01-12T22:22:22.019Z,14.23
2019-01-12T22:24:52.186Z,15.60
2019-01-12T22:27:22.429Z,14.77
2019-01-12T22:29:52.616Z,14.20
2019-01-12T22:32:22.803Z,14.60
2019-01-12T22:34:52.988Z,14.53
2019-01-12T22:37:23.130Z,15.13
2019-01-12T22:39:53.328Z,14.03
2019-01-12T22:42:23.513Z,16.40
2019-01-12T22:44:53.779Z,14.70
2019-01-12T22:47:23.994Z,16.60
2019-01-12T22:49:54.166Z,15.67
2019-01-12T22:52:24.350Z,16.33
2019-01-12T22:54:57.256Z,15.20
2019-01-12T22:57:27.460Z,14.40
2019-01-12T22:59:58.836Z,15.63
2019-01-12T23:02:29.358Z,16.63
2019-01-12T23:04:59.493Z,14.80
2019-01-12T23:07:29.687Z,13.70
2019-01-12T23:09:59.837Z,14.77
2019-01-12T23:12:33.272Z,15.13
2019-01-12T23:15:06.213Z,15.10
2019-01-12T23:17:36.458Z,15.10
2019-01-12T23:20:07.200Z,15.00
2019-01-12T23:22:37.535Z,14.73
2019-01-12T23:25:07.772Z,15.10
2019-01-12T23:27:38.048Z,14.20
2019-01-12T23:30:10.629Z,16.53
2019-01-12T23:32:42.620Z,14.40
2019-01-12T23:35:13.063Z,14.73
2019-01-12T23:37:43.235Z,15.27
2019-01-12T23:40:15.103Z,16.00
2019-01-12T23:42:46.392Z,14.93
2019-01-12T23:45:16.821Z,15.20
2019-01-12T23:47:47.051Z,16.40
2019-01-12T23:50:17.208Z,15.30
2019-01-12T23:52:47.408Z,14.80
2019-01-12T23:55:17.570Z,15.57
2019-01-12T23:57:47.830Z,15.73
